sensor_id;sensor_type;location;lat;lon;timestamp;pressure;altitude;pressure_sealevel;temperature;humidity
69318;BME280;56457;52.190;4.440;2023-11-22T00:00:41;102963.56;;;8.17;100.00
69318;BME280;56457;52.190;4.440;2023-11-22T00:01:41;102959.91;;;8.12;100.00
69318;BME280;56457;52.190;4.440;2023-11-22T00:02:41;102966.63;;;8.05;100.00
69318;BME280;56457;52.190;4.440;2023-11-22T00:03:42;102973.59;;;8.04;100.00
69318;BME280;56457;52.190;4.440;2023-11-22T00:04:42;102970.09;;;8.04;100.00
69318;BME280;56457;52.190;4.440;2023-11-22T00:05:42;102972.66;;;8.02;100.00
69318;BME280;56457;52.190;4.440;2023-11-22T00:06:43;102979.53;;;8.00;100.00
69318;BME280;56457;52.190;4.440;2023-11-22T00:07:43;102968.16;;;7.98;100.00
69318;BME280;56457;52.190;4.440;2023-11-22T00:08:43;102968.84;;;7.94;100.00
69318;BME280;56457;52.190;4.440;2023-11-22T00:09:43;102971.41;;;7.93;100.00
69318;BME280;56457;52.190;4.440;2023-11-22T00:10:46;102970.56;;;7.94;100.00
69318;BME280;56457;52.190;4.440;2023-11-22T00:11:46;102974.22;;;7.97;100.00
69318;BME280;56457;52.190;4.440;2023-11-22T00:12:46;102969.91;;;7.99;100.00
69318;BME280;56457;52.190;4.440;2023-11-22T00:13:47;102976.91;;;8.00;100.00
69318;BME280;56457;52.190;4.440;2023-11-22T00:14:49;102976.88;;;7.99;100.00
69318;BME280;56457;52.190;4.440;2023-11-22T00:15:49;102978.59;;;7.98;100.00
69318;BME280;56457;52.190;4.440;2023-11-22T00:16:50;102979.22;;;7.91;100.00
69318;BME280;56457;52.190;4.440;2023-11-22T00:17:51;102992.09;;;7.87;100.00
69318;BME280;56457;52.190;4.440;2023-11-22T00:18:51;102992.03;;;7.85;100.00
69318;BME280;56457;52.190;4.440;2023-11-22T00:19:51;102985.88;;;7.83;100.00
69318;BME280;56457;52.190;4.440;2023-11-22T00:20:52;102985.03;;;7.84;100.00
69318;BME280;56457;52.190;4.440;2023-11-22T00:21:52;102986.81;;;7.85;100.00
69318;BME280;56457;52.190;4.440;2023-11-22T00:22:53;102978.41;;;7.94;100.00
69318;BME280;56457;52.190;4.440;2023-11-22T00:23:53;102979.53;;;8.00;100.00
69318;BME280;56457;52.190;4.440;2023-11-22T00:24:53;102987.50;;;8.03;100.00
69318;BME280;56457;52.190;4.440;2023-11-22T00:25:54;102985.78;;;8.04;100.00
69318;BME280;56457;52.190;4.440;2023-11-22T00:26:54;102991.00;;;8.04;100.00
69318;BME280;56457;52.190;4.440;2023-11-22T00:27:54;102985.59;;;7.99;100.00
69318;BME280;56457;52.190;4.440;2023-11-22T00:28:55;102989.09;;;8.00;100.00
69318;BME280;56457;52.190;4.440;2023-11-22T00:29:55;102983.94;;;8.01;100.00
69318;BME280;56457;52.190;4.440;2023-11-22T00:30:56;102982.94;;;7.98;100.00
69318;BME280;56457;52.190;4.440;2023-11-22T00:31:56;102990.78;;;7.98;100.00
69318;BME280;56457;52.190;4.440;2023-11-22T00:32:56;102992.56;;;7.99;100.00
69318;BME280;56457;52.190;4.440;2023-11-22T00:33:57;102999.50;;;7.98;100.00
69318;BME280;56457;52.190;4.440;2023-11-22T00:34:57;102994.28;;;7.98;100.00
69318;BME280;56457;52.190;4.440;2023-11-22T00:35:57;102996.72;;;7.94;100.00
69318;BME280;56457;52.190;4.440;2023-11-22T00:36:58;102999.28;;;7.92;100.00
69318;BME280;56457;52.190;4.440;2023-11-22T00:37:58;102994.94;;;7.93;100.00
69318;BME280;56457;52.190;4.440;2023-11-22T00:38:59;102998.25;;;7.89;100.00
69318;BME280;56457;52.190;4.440;2023-11-22T00:39:59;102998.25;;;7.89;100.00
69318;BME280;56457;52.190;4.440;2023-11-22T00:41:00;103001.44;;;7.80;100.00
69318;BME280;56457;52.190;4.440;2023-11-22T00:42:02;103003.06;;;7.76;100.00
69318;BME280;56457;52.190;4.440;2023-11-22T00:43:03;103004.69;;;7.74;100.00
69318;BME280;56457;52.190;4.440;2023-11-22T00:44:04;103005.66;;;7.76;100.00
69318;BME280;56457;52.190;4.440;2023-11-22T00:45:06;103004.88;;;7.79;100.00
69318;BME280;56457;52.190;4.440;2023-11-22T00:46:06;103002.50;;;7.85;100.00
69318;BME280;56457;52.190;4.440;2023-11-22T00:47:06;103009.50;;;7.86;100.00
69318;BME280;56457;52.190;4.440;2023-11-22T00:48:07;103012.97;;;7.85;100.00
69318;BME280;56457;52.190;4.440;2023-11-22T00:49:07;103021.25;;;7.75;100.00
69318;BME280;56457;52.190;4.440;2023-11-22T00:50:10;103016.81;;;7.72;100.00
69318;BME280;56457;52.190;4.440;2023-11-22T00:51:11;103016.88;;;7.74;100.00
69318;BME280;56457;52.190;4.440;2023-11-22T00:52:11;103017.91;;;7.77;100.00
69318;BME280;56457;52.190;4.440;2023-11-22T00:53:13;103017.00;;;7.77;100.00
69318;BME280;56457;52.190;4.440;2023-11-22T00:54:14;103021.41;;;7.78;100.00
69318;BME280;56457;52.190;4.440;2023-11-22T00:55:15;103022.25;;;7.77;100.00
69318;BME280;56457;52.190;4.440;2023-11-22T00:56:15;103022.94;;;7.73;100.00
69318;BME280;56457;52.190;4.440;2023-11-22T00:57:16;103027.13;;;7.69;100.00
69318;BME280;56457;52.190;4.440;2023-11-22T00:58:17;103028.16;;;7.73;100.00
69318;BME280;56457;52.190;4.440;2023-11-22T00:59:17;103031.63;;;7.72;100.00
69318;BME280;56457;52.190;4.440;2023-11-22T01:00:19;103034.03;;;7.67;100.00
69318;BME280;56457;52.190;4.440;2023-11-22T01:01:19;103038.38;;;7.67;100.00
69318;BME280;56457;52.190;4.440;2023-11-22T01:02:20;103034.81;;;7.65;100.00
69318;BME280;56457;52.190;4.440;2023-11-22T01:03:20;103038.19;;;7.62;100.00
69318;BME280;56457;52.190;4.440;2023-11-22T01:04:21;103037.25;;;7.60;100.00
69318;BME280;56457;52.190;4.440;2023-11-22T01:05:21;103041.69;;;7.63;100.00
69318;BME280;56457;52.190;4.440;2023-11-22T01:06:22;103043.31;;;7.59;100.00
69318;BME280;56457;52.190;4.440;2023-11-22T01:07:23;103047.66;;;7.59;100.00
69318;BME280;56457;52.190;4.440;2023-11-22T01:08:23;103038.00;;;7.57;100.00
69318;BME280;56457;52.190;4.440;2023-11-22T01:09:23;103032.78;;;7.57;100.00
69318;BME280;56457;52.190;4.440;2023-11-22T01:10:24;103045.84;;;7.57;100.00
69318;BME280;56457;52.190;4.440;2023-11-22T01:11:24;103052.03;;;7.60;100.00
69318;BME280;56457;52.190;4.440;2023-11-22T01:12:24;103058.09;;;7.59;100.00
69318;BME280;56457;52.190;4.440;2023-11-22T01:13:25;103055.47;;;7.59;100.00
69318;BME280;56457;52.190;4.440;2023-11-22T01:14:25;103045.72;;;7.54;100.00
69318;BME280;56457;52.190;4.440;2023-11-22T01:15:26;103045.69;;;7.53;100.00
69318;BME280;56457;52.190;4.440;2023-11-22T01:16:26;103043.94;;;7.53;100.00
69318;BME280;56457;52.190;4.440;2023-11-22T01:17:27;103043.94;;;7.53;100.00
69318;BME280;56457;52.190;4.440;2023-11-22T01:18:27;103044.78;;;7.52;100.00
69318;BME280;56457;52.190;4.440;2023-11-22T01:19:27;103043.75;;;7.49;100.00
69318;BME280;56457;52.190;4.440;2023-11-22T01:20:28;103044.28;;;7.40;100.00
69318;BME280;56457;52.190;4.440;2023-11-22T01:21:28;103053.75;;;7.38;100.00
69318;BME280;56457;52.190;4.440;2023-11-22T01:22:29;103045.88;;;7.37;100.00
69318;BME280;56457;52.190;4.440;2023-11-22T01:23:32;103051.28;;;7.41;100.00
69318;BME280;56457;52.190;4.440;2023-11-22T01:24:32;103060.22;;;7.46;100.00
69318;BME280;56457;52.190;4.440;2023-11-22T01:25:33;103057.59;;;7.46;100.00
69318;BME280;56457;52.190;4.440;2023-11-22T01:26:33;103059.09;;;7.40;100.00
69318;BME280;56457;52.190;4.440;2023-11-22T01:27:33;103060.13;;;7.45;100.00
69318;BME280;56457;52.190;4.440;2023-11-22T01:28:33;103060.31;;;7.49;100.00
69318;BME280;56457;52.190;4.440;2023-11-22T01:29:34;103057.06;;;7.55;100.00
69318;BME280;56457;52.190;4.440;2023-11-22T01:30:35;103054.50;;;7.56;100.00
69318;BME280;56457;52.190;4.440;2023-11-22T01:31:35;103058.00;;;7.57;100.00
69318;BME280;56457;52.190;4.440;2023-11-22T01:32:35;103060.63;;;7.57;100.00
69318;BME280;56457;52.190;4.440;2023-11-22T01:33:35;103056.13;;;7.53;100.00
69318;BME280;56457;52.190;4.440;2023-11-22T01:34:37;103056.88;;;7.50;100.00
69318;BME280;56457;52.190;4.440;2023-11-22T01:35:37;103056.13;;;7.53;100.00
69318;BME280;56457;52.190;4.440;2023-11-22T01:36:49;103050.81;;;7.51;100.00
69318;BME280;56457;52.190;4.440;2023-11-22T01:37:50;103057.84;;;7.52;100.00
69318;BME280;56457;52.190;4.440;2023-11-22T01:38:50;103057.06;;;7.55;100.00
69318;BME280;56457;52.190;4.440;2023-11-22T01:39:50;103056.19;;;7.54;100.00
69318;BME280;56457;52.190;4.440;2023-11-22T01:40:52;103051.78;;;7.53;100.00
69318;BME280;56457;52.190;4.440;2023-11-22T01:41:52;103054.41;;;7.53;100.00
69318;BME280;56457;52.190;4.440;2023-11-22T01:42:53;103063.13;;;7.54;100.00
69318;BME280;56457;52.190;4.440;2023-11-22T01:43:54;103062.25;;;7.53;100.00
69318;BME280;56457;52.190;4.440;2023-11-22T01:44:55;103064.00;;;7.54;100.00
69318;BME280;56457;52.190;4.440;2023-11-22T01:45:55;103066.56;;;7.53;100.00
69318;BME280;56457;52.190;4.440;2023-11-22T01:46:56;103079.63;;;7.53;100.00
69318;BME280;56457;52.190;4.440;2023-11-22T01:47:56;103081.28;;;7.51;100.00
69318;BME280;56457;52.190;4.440;2023-11-22T01:48:56;103090.00;;;7.51;100.00
69318;BME280;56457;52.190;4.440;2023-11-22T01:49:57;103086.38;;;7.48;100.00
69318;BME280;56457;52.190;4.440;2023-11-22T01:50:57;103082.00;;;7.47;100.00
69318;BME280;56457;52.190;4.440;2023-11-22T01:51:57;103078.50;;;7.46;100.00
69318;BME280;56457;52.190;4.440;2023-11-22T01:52:58;103080.28;;;7.47;100.00
69318;BME280;56457;52.190;4.440;2023-11-22T01:53:58;103079.44;;;7.48;100.00
69318;BME280;56457;52.190;4.440;2023-11-22T01:55:01;103076.94;;;7.51;100.00
69318;BME280;56457;52.190;4.440;2023-11-22T01:56:04;103078.75;;;7.52;100.00
69318;BME280;56457;52.190;4.440;2023-11-22T01:57:05;103081.22;;;7.49;100.00
69318;BME280;56457;52.190;4.440;2023-11-22T01:58:08;103075.94;;;7.48;100.00
69318;BME280;56457;52.190;4.440;2023-11-22T01:59:08;103073.97;;;7.42;100.00
69318;BME280;56457;52.190;4.440;2023-11-22T02:00:08;103077.41;;;7.41;100.00
69318;BME280;56457;52.190;4.440;2023-11-22T02:01:14;103076.59;;;7.42;100.00
69318;BME280;56457;52.190;4.440;2023-11-22T02:02:14;103070.56;;;7.45;100.00
69318;BME280;56457;52.190;4.440;2023-11-22T02:03:14;103070.53;;;7.43;100.00
69318;BME280;56457;52.190;4.440;2023-11-22T02:04:15;103067.81;;;7.40;100.00
69318;BME280;56457;52.190;4.440;2023-11-22T02:05:15;103064.09;;;7.35;100.00
69318;BME280;56457;52.190;4.440;2023-11-22T02:06:15;103074.59;;;7.37;100.00
69318;BME280;56457;52.190;4.440;2023-11-22T02:07:19;103073.84;;;7.39;100.00
69318;BME280;56457;52.190;4.440;2023-11-22T02:08:19;103079.00;;;7.38;100.00
69318;BME280;56457;52.190;4.440;2023-11-22T02:09:19;103077.09;;;7.34;100.00
69318;BME280;56457;52.190;4.440;2023-11-22T02:10:20;103065.56;;;7.28;100.00
69318;BME280;56457;52.190;4.440;2023-11-22T02:11:20;103079.97;;;7.19;100.00
69318;BME280;56457;52.190;4.440;2023-11-22T02:12:22;103078.06;;;7.15;100.00
69318;BME280;56457;52.190;4.440;2023-11-22T02:13:22;103073.78;;;7.17;100.00
69318;BME280;56457;52.190;4.440;2023-11-22T02:14:22;103084.50;;;7.23;100.00
69318;BME280;56457;52.190;4.440;2023-11-22T02:15:23;103067.22;;;7.26;100.00
69318;BME280;56457;52.190;4.440;2023-11-22T02:16:24;103069.91;;;7.28;100.00
69318;BME280;56457;52.190;4.440;2023-11-22T02:17:24;103068.13;;;7.27;100.00
69318;BME280;56457;52.190;4.440;2023-11-22T02:18:28;103064.53;;;7.25;100.00
69318;BME280;56457;52.190;4.440;2023-11-22T02:19:28;103066.06;;;7.20;100.00
69318;BME280;56457;52.190;4.440;2023-11-22T02:20:30;103067.63;;;7.15;100.00
69318;BME280;56457;52.190;4.440;2023-11-22T02:21:30;103067.47;;;7.12;100.00
69318;BME280;56457;52.190;4.440;2023-11-22T02:22:31;103070.03;;;7.10;100.00
69318;BME280;56457;52.190;4.440;2023-11-22T02:23:31;103078.88;;;7.14;100.00
69318;BME280;56457;52.190;4.440;2023-11-22T02:24:32;103074.47;;;7.13;100.00
69318;BME280;56457;52.190;4.440;2023-11-22T02:25:34;103074.56;;;7.14;100.00
69318;BME280;56457;52.190;4.440;2023-11-22T02:26:34;103071.13;;;7.15;100.00
69318;BME280;56457;52.190;4.440;2023-11-22T02:27:36;103069.41;;;7.16;100.00
69318;BME280;56457;52.190;4.440;2023-11-22T02:28:37;103070.09;;;7.12;100.00
69318;BME280;56457;52.190;4.440;2023-11-22T02:29:38;103071.03;;;7.14;100.00
69318;BME280;56457;52.190;4.440;2023-11-22T02:30:38;103074.47;;;7.13;100.00
69318;BME280;56457;52.190;4.440;2023-11-22T02:31:39;103068.31;;;7.11;100.00
69318;BME280;56457;52.190;4.440;2023-11-22T02:32:39;103062.78;;;7.03;100.00
69318;BME280;56457;52.190;4.440;2023-11-22T02:33:39;103066.75;;;6.95;100.00
69318;BME280;56457;52.190;4.440;2023-11-22T02:34:40;103060.53;;;6.91;100.00
69318;BME280;56457;52.190;4.440;2023-11-22T02:35:40;103064.97;;;6.94;100.00
69318;BME280;56457;52.190;4.440;2023-11-22T02:36:43;103076.31;;;6.94;100.00
69318;BME280;56457;52.190;4.440;2023-11-22T02:37:44;103072.06;;;6.96;100.00
69318;BME280;56457;52.190;4.440;2023-11-22T02:38:45;103068.63;;;6.97;100.00
69318;BME280;56457;52.190;4.440;2023-11-22T02:41:07;103073.78;;;6.96;100.00
69318;BME280;56457;52.190;4.440;2023-11-22T02:42:09;103075.56;;;6.97;100.00
69318;BME280;56457;52.190;4.440;2023-11-22T02:43:09;103069.47;;;6.96;100.00
69318;BME280;56457;52.190;4.440;2023-11-22T02:44:11;103079.81;;;6.95;100.00
69318;BME280;56457;52.190;4.440;2023-11-22T02:45:17;103075.38;;;6.92;100.00
69318;BME280;56457;52.190;4.440;2023-11-22T02:46:18;103073.59;;;6.91;100.00
69318;BME280;56457;52.190;4.440;2023-11-22T02:47:18;103064.78;;;6.89;100.00
69318;BME280;56457;52.190;4.440;2023-11-22T02:48:18;103063.97;;;6.90;100.00
69318;BME280;56457;52.190;4.440;2023-11-22T02:49:19;103068.56;;;6.96;100.00
69318;BME280;56457;52.190;4.440;2023-11-22T02:50:20;103073.78;;;6.96;100.00
69318;BME280;56457;52.190;4.440;2023-11-22T02:51:20;103064.97;;;6.94;100.00
69318;BME280;56457;52.190;4.440;2023-11-22T02:52:22;103070.41;;;6.98;100.00
69318;BME280;56457;52.190;4.440;2023-11-22T02:53:24;103069.56;;;6.99;100.00
69318;BME280;56457;52.190;4.440;2023-11-22T02:54:24;103071.19;;;6.96;100.00
69318;BME280;56457;52.190;4.440;2023-11-22T02:55:24;103065.19;;;6.98;100.00
69318;BME280;56457;52.190;4.440;2023-11-22T02:56:25;103071.25;;;6.97;100.00
69318;BME280;56457;52.190;4.440;2023-11-22T02:57:25;103067.75;;;6.97;100.00
69318;BME280;56457;52.190;4.440;2023-11-22T02:58:27;103061.63;;;6.96;100.00
69318;BME280;56457;52.190;4.440;2023-11-22T02:59:28;103063.19;;;6.93;100.00
69318;BME280;56457;52.190;4.440;2023-11-22T03:00:28;103063.34;;;6.96;100.00
69318;BME280;56457;52.190;4.440;2023-11-22T03:01:29;103055.44;;;6.94;100.00
69318;BME280;56457;52.190;4.440;2023-11-22T03:02:29;103055.31;;;6.91;100.00
69318;BME280;56457;52.190;4.440;2023-11-22T03:03:30;103050.94;;;6.90;100.00
69318;BME280;56457;52.190;4.440;2023-11-22T03:04:31;103047.19;;;6.84;100.00
69318;BME280;56457;52.190;4.440;2023-11-22T03:05:31;103050.66;;;6.84;100.00
69318;BME280;56457;52.190;4.440;2023-11-22T03:06:31;103056.91;;;6.88;100.00
69318;BME280;56457;52.190;4.440;2023-11-22T03:07:31;103061.28;;;6.89;100.00
69318;BME280;56457;52.190;4.440;2023-11-22T03:08:32;103054.28;;;6.88;100.00
69318;BME280;56457;52.190;4.440;2023-11-22T03:09:32;103066.44;;;6.87;100.00
69318;BME280;56457;52.190;4.440;2023-11-22T03:10:33;103065.50;;;6.85;100.00
69318;BME280;56457;52.190;4.440;2023-11-22T03:11:34;103067.97;;;6.82;100.00
69318;BME280;56457;52.190;4.440;2023-11-22T03:12:34;103065.28;;;6.81;100.00
69318;BME280;56457;52.190;4.440;2023-11-22T03:13:34;103070.25;;;6.74;100.00
69318;BME280;56457;52.190;4.440;2023-11-22T03:14:35;103063.25;;;6.73;100.00
69318;BME280;56457;52.190;4.440;2023-11-22T03:15:35;103063.94;;;6.69;100.00
69318;BME280;56457;52.190;4.440;2023-11-22T03:16:38;103065.66;;;6.69;100.00
69318;BME280;56457;52.190;4.440;2023-11-22T03:17:38;103066.41;;;6.66;100.00
69318;BME280;56457;52.190;4.440;2023-11-22T03:18:39;103076.78;;;6.65;100.00
69318;BME280;56457;52.190;4.440;2023-11-22T03:19:39;103074.19;;;6.65;100.00
69318;BME280;56457;52.190;4.440;2023-11-22T03:20:40;103084.63;;;6.65;100.00
69318;BME280;56457;52.190;4.440;2023-11-22T03:21:42;103090.63;;;6.64;100.00
69318;BME280;56457;52.190;4.440;2023-11-22T03:22:44;103087.22;;;6.65;100.00
69318;BME280;56457;52.190;4.440;2023-11-22T03:23:44;103091.00;;;6.71;100.00
69318;BME280;56457;52.190;4.440;2023-11-22T03:24:44;103088.38;;;6.71;100.00
69318;BME280;56457;52.190;4.440;2023-11-22T03:25:44;103091.88;;;6.72;100.00
69318;BME280;56457;52.190;4.440;2023-11-22T03:26:45;103088.50;;;6.74;100.00
69318;BME280;56457;52.190;4.440;2023-11-22T03:27:45;103093.66;;;6.73;100.00
69318;BME280;56457;52.190;4.440;2023-11-22T03:28:47;103099.63;;;6.70;100.00
69318;BME280;56457;52.190;4.440;2023-11-22T03:29:47;103092.50;;;6.66;100.00
69318;BME280;56457;52.190;4.440;2023-11-22T03:30:48;103105.75;;;6.71;100.00
69318;BME280;56457;52.190;4.440;2023-11-22T03:31:48;103110.16;;;6.72;100.00
69318;BME280;56457;52.190;4.440;2023-11-22T03:32:48;103111.09;;;6.74;100.00
69318;BME280;56457;52.190;4.440;2023-11-22T03:33:49;103119.88;;;6.76;100.00
69318;BME280;56457;52.190;4.440;2023-11-22T03:34:50;103127.78;;;6.78;100.00
69318;BME280;56457;52.190;4.440;2023-11-22T03:35:51;103131.47;;;6.83;100.00
69318;BME280;56457;52.190;4.440;2023-11-22T03:36:51;103132.63;;;6.89;100.00
69318;BME280;56457;52.190;4.440;2023-11-22T03:37:52;103137.16;;;6.93;100.00
69318;BME280;56457;52.190;4.440;2023-11-22T03:38:52;103138.00;;;6.92;100.00
69318;BME280;56457;52.190;4.440;2023-11-22T03:39:52;103139.66;;;6.90;100.00
69318;BME280;56457;52.190;4.440;2023-11-22T03:40:53;103136.22;;;6.91;100.00
69318;BME280;56457;52.190;4.440;2023-11-22T03:41:53;103141.44;;;6.91;100.00
69318;BME280;56457;52.190;4.440;2023-11-22T03:42:53;103138.94;;;6.94;100.00
69318;BME280;56457;52.190;4.440;2023-11-22T03:43:54;103137.38;;;6.98;100.00
69318;BME280;56457;52.190;4.440;2023-11-22T03:44:54;103138.25;;;6.98;100.00
69318;BME280;56457;52.190;4.440;2023-11-22T03:45:55;103143.44;;;6.97;100.00
69318;BME280;56457;52.190;4.440;2023-11-22T03:46:55;103141.44;;;6.91;100.00
69318;BME280;56457;52.190;4.440;2023-11-22T03:47:55;103143.06;;;6.89;100.00
69318;BME280;56457;52.190;4.440;2023-11-22T03:48:55;103133.56;;;6.90;100.00
69318;BME280;56457;52.190;4.440;2023-11-22T03:49:56;103138.66;;;6.88;100.00
69318;BME280;56457;52.190;4.440;2023-11-22T03:50:56;103139.22;;;6.81;100.00
69318;BME280;56457;52.190;4.440;2023-11-22T03:51:56;103139.78;;;6.74;100.00
69318;BME280;56457;52.190;4.440;2023-11-22T03:52:57;103147.78;;;6.77;100.00
69318;BME280;56457;52.190;4.440;2023-11-22T03:53:57;103149.06;;;6.87;100.00
69318;BME280;56457;52.190;4.440;2023-11-22T03:54:57;103152.69;;;6.90;100.00
69318;BME280;56457;52.190;4.440;2023-11-22T03:55:58;103145.56;;;6.86;100.00
69318;BME280;56457;52.190;4.440;2023-11-22T03:56:58;103144.72;;;6.87;100.00
69318;BME280;56457;52.190;4.440;2023-11-22T03:57:59;103138.75;;;6.90;100.00
69318;BME280;56457;52.190;4.440;2023-11-22T03:58:59;103145.75;;;6.91;100.00
69318;BME280;56457;52.190;4.440;2023-11-22T03:59:59;103143.91;;;6.88;100.00
69318;BME280;56457;52.190;4.440;2023-11-22T04:00:59;103145.50;;;6.85;100.00
69318;BME280;56457;52.190;4.440;2023-11-22T04:02:04;103148.03;;;6.83;100.00
69318;BME280;56457;52.190;4.440;2023-11-22T04:03:05;103146.31;;;6.84;100.00
69318;BME280;56457;52.190;4.440;2023-11-22T04:04:05;103149.56;;;6.78;100.00
69318;BME280;56457;52.190;4.440;2023-11-22T04:05:05;103146.72;;;6.73;100.00
69318;BME280;56457;52.190;4.440;2023-11-22T04:06:07;103151.88;;;6.72;100.00
69318;BME280;56457;52.190;4.440;2023-11-22T04:07:07;103157.22;;;6.75;100.00
69318;BME280;56457;52.190;4.440;2023-11-22T04:08:08;103155.38;;;6.72;100.00
69318;BME280;56457;52.190;4.440;2023-11-22T04:09:09;103165.66;;;6.69;100.00
69318;BME280;56457;52.190;4.440;2023-11-22T04:10:12;103167.44;;;6.70;100.00
69318;BME280;56457;52.190;4.440;2023-11-22T04:11:13;103163.06;;;6.69;100.00
69318;BME280;56457;52.190;4.440;2023-11-22T04:12:13;103162.16;;;6.69;100.00
69318;BME280;56457;52.190;4.440;2023-11-22T04:13:13;103165.53;;;6.66;100.00
69318;BME280;56457;52.190;4.440;2023-11-22T04:14:14;103165.59;;;6.68;100.00
69318;BME280;56457;52.190;4.440;2023-11-22T04:15:14;103156.41;;;6.76;100.00
69318;BME280;56457;52.190;4.440;2023-11-22T04:16:14;103166.09;;;6.79;100.00
69318;BME280;56457;52.190;4.440;2023-11-22T04:17:15;103160.94;;;6.80;100.00
69318;BME280;56457;52.190;4.440;2023-11-22T04:18:15;103163.69;;;6.83;100.00
69318;BME280;56457;52.190;4.440;2023-11-22T04:19:15;103157.38;;;6.78;100.00
69318;BME280;56457;52.190;4.440;2023-11-22T04:20:16;103156.34;;;6.74;100.00
69318;BME280;56457;52.190;4.440;2023-11-22T04:21:17;103151.88;;;6.72;100.00
69318;BME280;56457;52.190;4.440;2023-11-22T04:22:19;103151.88;;;6.72;100.00
69318;BME280;56457;52.190;4.440;2023-11-22T04:23:19;103151.66;;;6.67;100.00
69318;BME280;56457;52.190;4.440;2023-11-22T04:24:20;103158.53;;;6.65;100.00
69318;BME280;56457;52.190;4.440;2023-11-22T04:25:20;103151.47;;;6.63;100.00
69318;BME280;56457;52.190;4.440;2023-11-22T04:26:21;103149.84;;;6.65;100.00
69318;BME280;56457;52.190;4.440;2023-11-22T04:27:22;103150.63;;;6.64;100.00
69318;BME280;56457;52.190;4.440;2023-11-22T04:28:22;103148.72;;;6.60;100.00
69318;BME280;56457;52.190;4.440;2023-11-22T04:29:22;103157.22;;;6.56;100.00
69318;BME280;56457;52.190;4.440;2023-11-22T04:30:22;103158.13;;;6.56;100.00
69318;BME280;56457;52.190;4.440;2023-11-22T04:31:23;103156.47;;;6.58;100.00
69318;BME280;56457;52.190;4.440;2023-11-22T04:32:23;103157.38;;;6.59;100.00
69318;BME280;56457;52.190;4.440;2023-11-22T04:33:24;103161.66;;;6.58;100.00
69318;BME280;56457;52.190;4.440;2023-11-22T04:34:24;103162.59;;;6.59;100.00
69318;BME280;56457;52.190;4.440;2023-11-22T04:35:24;103164.28;;;6.58;100.00
69318;BME280;56457;52.190;4.440;2023-11-22T04:36:25;103176.31;;;6.55;100.00
69318;BME280;56457;52.190;4.440;2023-11-22T04:37:25;103172.88;;;6.56;100.00
69318;BME280;56457;52.190;4.440;2023-11-22T04:38:26;103165.03;;;6.56;100.00
69318;BME280;56457;52.190;4.440;2023-11-22T04:39:27;103159.00;;;6.57;100.00
69318;BME280;56457;52.190;4.440;2023-11-22T04:40:28;103160.66;;;6.55;100.00
69318;BME280;56457;52.190;4.440;2023-11-22T04:41:28;103158.88;;;6.54;100.00
69318;BME280;56457;52.190;4.440;2023-11-22T04:42:28;103161.44;;;6.52;100.00
69318;BME280;56457;52.190;4.440;2023-11-22T04:43:29;103161.28;;;6.49;100.00
69318;BME280;56457;52.190;4.440;2023-11-22T04:44:29;103152.63;;;6.50;100.00
69318;BME280;56457;52.190;4.440;2023-11-22T04:45:29;103163.00;;;6.48;100.00
69318;BME280;56457;52.190;4.440;2023-11-22T04:46:30;103162.03;;;6.46;100.00
69318;BME280;56457;52.190;4.440;2023-11-22T04:47:30;103162.84;;;6.45;100.00
69318;BME280;56457;52.190;4.440;2023-11-22T04:48:32;103165.59;;;6.48;100.00
69318;BME280;56457;52.190;4.440;2023-11-22T04:49:32;103160.38;;;6.48;100.00
69318;BME280;56457;52.190;4.440;2023-11-22T04:50:33;103160.50;;;6.52;100.00
69318;BME280;56457;52.190;4.440;2023-11-22T04:51:33;103165.66;;;6.50;100.00
69318;BME280;56457;52.190;4.440;2023-11-22T04:52:35;103156.94;;;6.50;100.00
69318;BME280;56457;52.190;4.440;2023-11-22T04:53:36;103158.66;;;6.49;100.00
69318;BME280;56457;52.190;4.440;2023-11-22T04:54:36;103164.03;;;6.52;100.00
69318;BME280;56457;52.190;4.440;2023-11-22T04:55:37;103165.88;;;6.55;100.00
69318;BME280;56457;52.190;4.440;2023-11-22T04:56:38;103171.97;;;6.55;100.00
69318;BME280;56457;52.190;4.440;2023-11-22T04:57:38;103172.03;;;6.57;100.00
69318;BME280;56457;52.190;4.440;2023-11-22T04:58:40;103174.03;;;6.62;100.00
69318;BME280;56457;52.190;4.440;2023-11-22T04:59:40;103177.59;;;6.64;100.00
69318;BME280;56457;52.190;4.440;2023-11-22T05:00:41;103173.50;;;6.69;100.00
69318;BME280;56457;52.190;4.440;2023-11-22T05:01:41;103177.97;;;6.72;100.00
69318;BME280;56457;52.190;4.440;2023-11-22T05:02:41;103168.28;;;6.69;100.00
69318;BME280;56457;52.190;4.440;2023-11-22T05:03:42;103178.81;;;6.71;100.00
69318;BME280;56457;52.190;4.440;2023-11-22T05:04:43;103179.59;;;6.70;100.00
69318;BME280;56457;52.190;4.440;2023-11-22T05:05:47;103177.00;;;6.70;100.00
69318;BME280;56457;52.190;4.440;2023-11-22T05:06:48;103189.34;;;6.74;100.00
69318;BME280;56457;52.190;4.440;2023-11-22T05:07:48;103186.41;;;6.66;100.00
69318;BME280;56457;52.190;4.440;2023-11-22T05:08:48;103182.03;;;6.65;100.00
69318;BME280;56457;52.190;4.440;2023-11-22T05:09:48;103181.88;;;6.62;100.00
69318;BME280;56457;52.190;4.440;2023-11-22T05:10:49;103185.38;;;6.63;100.00
69318;BME280;56457;52.190;4.440;2023-11-22T05:11:49;103181.13;;;6.65;100.00
69318;BME280;56457;52.190;4.440;2023-11-22T05:12:52;103183.75;;;6.65;100.00
69318;BME280;56457;52.190;4.440;2023-11-22T05:13:52;103181.66;;;6.58;100.00
69318;BME280;56457;52.190;4.440;2023-11-22T05:14:52;103171.22;;;6.58;100.00
69318;BME280;56457;52.190;4.440;2023-11-22T05:15:53;103170.25;;;6.56;100.00
69318;BME280;56457;52.190;4.440;2023-11-22T05:16:53;103170.25;;;6.56;100.00
69318;BME280;56457;52.190;4.440;2023-11-22T05:17:56;103167.81;;;6.59;100.00
69318;BME280;56457;52.190;4.440;2023-11-22T05:18:56;103161.66;;;6.58;100.00